Time;durP1;ratioP1;P1;durP2;ratioP2;P2;SDS_P1;SDS_P2;PMS_P1;PMS_P2;Temp;Humidity;BMP_temperature;BMP_pressure;BME280_temperature;BME280_humidity;BME280_pressure;Samples;Min_cycle;Max_cycle;Signal;HPM_P1;HPM_P2
2021/03/18 00:00:28;;;;;;;0.95;0.25;;;20.90;40.30;;;;;;5062865;28;20060;-45
2021/03/18 00:02:54;;;;;;;1.35;0.50;;;20.90;40.30;;;;;;5061582;28;20118;-45
2021/03/18 00:05:20;;;;;;;0.82;0.30;;;20.90;40.30;;;;;;5063602;28;20017;-45
2021/03/18 00:07:45;;;;;;;1.83;0.38;;;20.90;40.30;;;;;;5062824;28;20422;-44
2021/03/18 00:10:11;;;;;;;1.42;0.30;;;20.90;40.30;;;;;;5063696;28;20031;-46
2021/03/18 00:12:37;;;;;;;0.70;0.28;;;20.90;40.30;;;;;;5062004;28;20024;-46
2021/03/18 00:15:07;;;;;;;0.98;0.20;;;20.90;40.40;;;;;;5076236;22;20032;-45
2021/03/18 00:17:33;;;;;;;0.50;0.22;;;20.90;40.50;;;;;;5025728;28;20020;-44
2021/03/18 00:19:59;;;;;;;1.27;0.20;;;20.90;40.50;;;;;;5044407;28;20037;-47
2021/03/18 00:22:25;;;;;;;1.08;0.30;;;20.80;40.40;;;;;;5045682;28;20685;-48
2021/03/18 00:24:51;;;;;;;1.17;0.30;;;20.80;40.40;;;;;;5047486;28;20079;-46
2021/03/18 00:27:16;;;;;;;0.93;0.20;;;20.80;40.90;;;;;;5041549;28;20656;-47
2021/03/18 00:29:42;;;;;;;0.77;0.30;;;20.80;40.50;;;;;;5039802;28;20037;-48
2021/03/18 00:32:08;;;;;;;0.75;0.22;;;20.80;40.50;;;;;;5038850;28;20120;-47
2021/03/18 00:34:33;;;;;;;1.13;0.40;;;20.70;40.40;;;;;;5041596;28;20335;-47
2021/03/18 00:36:59;;;;;;;2.75;0.28;;;20.80;40.50;;;;;;5040951;28;20044;-46
2021/03/18 00:39:24;;;;;;;2.15;0.40;;;20.80;40.60;;;;;;5041023;28;20658;-43
2021/03/18 00:41:50;;;;;;;1.52;0.50;;;20.70;40.50;;;;;;5039055;28;20029;-47
2021/03/18 00:44:16;;;;;;;1.33;0.30;;;20.70;40.50;;;;;;5041155;28;20044;-45
2021/03/18 00:46:41;;;;;;;0.82;0.40;;;20.70;41.10;;;;;;5042301;28;20107;-48
2021/03/18 00:49:08;;;;;;;1.00;0.40;;;20.60;40.60;;;;;;5038218;28;20025;-45
2021/03/18 00:51:33;;;;;;;1.48;0.30;;;20.70;40.60;;;;;;5040089;28;20481;-47
2021/03/18 00:53:59;;;;;;;1.88;0.30;;;20.70;41.10;;;;;;5039896;28;20032;-46
2021/03/18 00:56:25;;;;;;;0.90;0.20;;;20.60;40.60;;;;;;5040043;28;20029;-45
2021/03/18 00:58:51;;;;;;;1.38;0.20;;;20.60;40.60;;;;;;5039551;28;20033;-48
2021/03/18 01:01:23;;;;;;;0.77;0.28;;;20.60;40.60;;;;;;5038179;28;20083;-48
2021/03/18 01:03:49;;;;;;;2.42;0.20;;;20.60;40.60;;;;;;5038714;28;20706;-51
2021/03/18 01:06:26;;;;;;;0.70;0.20;;;20.60;40.70;;;;;;5039239;28;20049;-46
2021/03/18 01:08:53;;;;;;;1.27;0.20;;;20.60;40.70;;;;;;5023343;28;20038;-48
2021/03/18 01:11:21;;;;;;;0.88;0.40;;;20.60;40.60;;;;;;5041246;28;20378;-45
2021/03/18 01:13:52;;;;;;;1.27;0.28;;;20.60;40.60;;;;;;5041191;28;20060;-45
2021/03/18 01:16:24;;;;;;;0.82;0.20;;;20.60;40.70;;;;;;5039701;28;20617;-44
2021/03/18 01:18:55;;;;;;;0.60;0.20;;;20.50;40.70;;;;;;5041154;28;20102;-45
2021/03/18 01:21:24;;;;;;;2.25;0.13;;;20.50;40.70;;;;;;5039994;28;20574;-47
2021/03/18 01:23:50;;;;;;;1.70;0.30;;;20.50;40.70;;;;;;5040916;28;20687;-43
2021/03/18 01:26:16;;;;;;;1.77;0.40;;;20.50;40.60;;;;;;5040896;28;20028;-51
2021/03/18 01:28:42;;;;;;;0.60;0.20;;;20.50;40.70;;;;;;5039508;28;20020;-46
2021/03/18 01:31:09;;;;;;;0.82;0.30;;;20.50;40.60;;;;;;5041591;28;20057;-48
2021/03/18 01:33:36;;;;;;;0.68;0.20;;;20.50;40.60;;;;;;5005088;28;21011;-46
2021/03/18 01:36:04;;;;;;;2.45;0.20;;;20.50;40.60;;;;;;5023939;28;20063;-46
2021/03/18 01:38:30;;;;;;;1.02;0.20;;;20.50;40.70;;;;;;5047535;28;20062;-45
2021/03/18 01:40:58;;;;;;;1.40;0.30;;;20.50;40.70;;;;;;5049124;28;20378;-49
2021/03/18 01:43:26;;;;;;;0.80;0.20;;;20.50;40.70;;;;;;5049846;28;20482;-47
2021/03/18 01:45:51;;;;;;;0.73;0.20;;;20.40;40.60;;;;;;5040348;28;20033;-47
2021/03/18 01:48:17;;;;;;;2.60;0.30;;;20.40;40.70;;;;;;5039206;28;20431;-47
2021/03/18 01:50:44;;;;;;;0.47;0.15;;;20.40;40.70;;;;;;5039090;28;20024;-47
2021/03/18 01:53:10;;;;;;;0.60;0.20;;;20.40;40.70;;;;;;5040149;28;20048;-47
2021/03/18 01:55:39;;;;;;;0.77;0.30;;;20.40;40.80;;;;;;5041114;28;20052;-44
2021/03/18 01:58:06;;;;;;;0.47;0.20;;;20.40;40.70;;;;;;5041535;28;20045;-44
2021/03/18 02:00:33;;;;;;;0.63;0.20;;;20.40;40.70;;;;;;5045078;28;20027;-49
2021/03/18 02:03:00;;;;;;;0.47;0.20;;;20.40;40.80;;;;;;5040537;28;20109;-47
2021/03/18 02:05:27;;;;;;;0.65;0.20;;;20.40;40.70;;;;;;5038856;28;20033;-47
2021/03/18 02:07:54;;;;;;;0.60;0.20;;;20.40;40.70;;;;;;5038516;28;20108;-47
2021/03/18 02:10:26;;;;;;;0.70;0.20;;;20.40;40.80;;;;;;5020734;28;20040;-47
2021/03/18 02:12:53;;;;;;;0.52;0.20;;;20.40;40.80;;;;;;5039182;28;20121;-44
2021/03/18 02:15:21;;;;;;;2.10;0.20;;;20.30;40.80;;;;;;5038358;28;20036;-47
2021/03/18 02:17:56;;;;;;;0.50;0.20;;;20.40;40.80;;;;;;5039499;28;20029;-42
2021/03/18 02:20:59;;;;;;;0.50;0.10;;;20.30;40.90;;;;;;5040527;28;20469;-49
2021/03/18 02:23:51;;;;;;;0.60;0.20;;;20.30;40.90;;;;;;5039153;28;20045;-45
2021/03/18 02:26:45;;;;;;;0.70;0.20;;;20.30;41.00;;;;;;5040022;28;20112;-46
2021/03/18 02:29:32;;;;;;;0.30;0.10;;;20.30;40.80;;;;;;5040255;28;20391;-45
2021/03/18 02:32:16;;;;;;;0.77;0.17;;;20.30;41.50;;;;;;5038662;28;20469;-47
2021/03/18 02:35:12;;;;;;;0.60;0.20;;;20.30;40.90;;;;;;5038436;28;20025;-48
2021/03/18 02:37:42;;;;;;;1.00;0.10;;;20.30;40.90;;;;;;5039952;28;20028;-43
2021/03/18 02:40:13;;;;;;;0.70;0.20;;;20.30;40.90;;;;;;5037729;28;20036;-44
2021/03/18 02:42:40;;;;;;;0.43;0.20;;;20.30;40.90;;;;;;5021622;28;20116;-45
2021/03/18 02:45:07;;;;;;;0.50;0.10;;;20.20;40.90;;;;;;5037786;28;20025;-46
2021/03/18 02:47:36;;;;;;;0.60;0.20;;;20.20;41.00;;;;;;5038270;28;20102;-46
2021/03/18 02:50:04;;;;;;;0.43;0.10;;;20.20;40.90;;;;;;5039196;28;20084;-47
2021/03/18 03:02:37;;;;;;;1.07;0.10;;;20.20;40.80;;;;;;5039239;28;20071;-48
2021/03/18 03:05:06;;;;;;;0.52;0.20;;;20.20;40.90;;;;;;5038883;28;20291;-47
2021/03/18 03:07:33;;;;;;;0.60;0.20;;;20.20;40.90;;;;;;5039913;28;20029;-47
2021/03/18 03:10:00;;;;;;;0.50;0.13;;;20.20;40.80;;;;;;5038722;28;20047;-46
2021/03/18 03:12:30;;;;;;;1.30;0.20;;;20.20;41.00;;;;;;5038855;28;20029;-50
2021/03/18 03:14:58;;;;;;;0.70;0.10;;;20.20;41.00;;;;;;5038579;28;20017;-46
2021/03/18 03:17:26;;;;;;;0.30;0.10;;;20.20;40.90;;;;;;5038723;28;20091;-48
2021/03/18 03:19:55;;;;;;;0.43;0.10;;;20.20;40.70;;;;;;5039047;28;20044;-46
2021/03/18 03:22:21;;;;;;;0.35;0.10;;;20.20;40.50;;;;;;5039732;28;20754;-45
2021/03/18 03:24:48;;;;;;;0.30;0.10;;;20.20;40.50;;;;;;5043472;28;20091;-45
2021/03/18 03:27:14;;;;;;;0.57;0.10;;;20.20;40.50;;;;;;5041236;28;20047;-47
2021/03/18 03:29:44;;;;;;;0.38;0.10;;;20.20;40.50;;;;;;5043919;28;20028;-44
2021/03/18 03:32:12;;;;;;;0.50;0.20;;;20.20;40.40;;;;;;5042359;28;20387;-45
2021/03/18 03:34:39;;;;;;;0.40;0.10;;;20.20;40.30;;;;;;5043498;28;20095;-49
2021/03/18 03:37:06;;;;;;;0.75;0.10;;;20.20;40.40;;;;;;5041563;28;20033;-46
2021/03/18 03:39:32;;;;;;;0.30;0.10;;;20.10;40.30;;;;;;5041854;28;20037;-47
2021/03/18 03:41:58;;;;;;;2.15;0.20;;;20.10;40.30;;;;;;5042957;28;20108;-47
2021/03/18 03:44:24;;;;;;;0.40;0.10;;;20.10;40.30;;;;;;5041968;28;20104;-50
2021/03/18 03:46:50;;;;;;;0.55;0.10;;;20.20;40.30;;;;;;5029969;28;20034;-47
2021/03/18 03:49:15;;;;;;;1.08;0.10;;;20.10;40.20;;;;;;5052227;28;20084;-46
2021/03/18 03:52:10;;;;;;;0.45;0.13;;;20.10;40.30;;;;;;5051499;28;20028;-47
2021/03/18 03:54:46;;;;;;;0.43;0.10;;;20.10;40.30;;;;;;5046655;28;20032;-48
2021/03/18 03:57:21;;;;;;;0.43;0.10;;;20.20;40.30;;;;;;5042679;28;20066;-45
2021/03/18 03:59:48;;;;;;;0.60;0.10;;;20.10;40.20;;;;;;5041785;28;20037;-43
2021/03/18 04:02:15;;;;;;;0.20;0.03;;;20.10;40.30;;;;;;5024294;28;20017;-45
2021/03/18 04:04:44;;;;;;;0.30;0.10;;;20.10;40.30;;;;;;5042507;28;20036;-48
2021/03/18 04:07:21;;;;;;;0.82;0.10;;;20.10;40.40;;;;;;5042403;28;20037;-48
2021/03/18 04:09:47;;;;;;;0.10;0.10;;;20.10;40.40;;;;;;5041484;28;20389;-46
2021/03/18 04:12:16;;;;;;;0.85;0.10;;;20.10;40.30;;;;;;5041441;28;20032;-42
2021/03/18 04:14:54;;;;;;;0.75;0.10;;;20.10;40.20;;;;;;5040416;28;20458;-44
2021/03/18 04:17:21;;;;;;;1.98;0.10;;;20.10;40.20;;;;;;5042264;28;20063;-48
2021/03/18 04:19:51;;;;;;;0.40;0.10;;;20.10;40.20;;;;;;5041448;28;20033;-46
2021/03/18 04:22:18;;;;;;;0.50;0.10;;;20.10;40.10;;;;;;5042654;28;20029;-48
2021/03/18 04:24:46;;;;;;;2.15;0.10;;;20.00;40.10;;;;;;5041835;28;20037;-49
2021/03/18 04:27:12;;;;;;;0.70;0.00;;;20.00;40.10;;;;;;5023367;28;20026;-47
2021/03/18 04:29:39;;;;;;;0.50;0.20;;;20.00;40.00;;;;;;5046070;28;20029;-49
2021/03/18 04:32:06;;;;;;;0.30;0.10;;;20.00;40.10;;;;;;5046548;28;20037;-49
2021/03/18 04:34:33;;;;;;;0.40;0.10;;;20.00;40.10;;;;;;5042659;28;20398;-44
2021/03/18 04:37:00;;;;;;;0.30;0.10;;;20.00;40.00;;;;;;5041505;28;20033;-45
2021/03/18 04:39:26;;;;;;;1.05;0.10;;;20.00;39.90;;;;;;5041577;28;20457;-43
2021/03/18 04:41:52;;;;;;;0.77;0.10;;;20.00;39.90;;;;;;5041501;28;20064;-45
2021/03/18 04:44:18;;;;;;;0.55;0.10;;;19.90;39.90;;;;;;5041094;28;20108;-48
2021/03/18 04:46:47;;;;;;;1.60;0.30;;;20.00;39.90;;;;;;5040537;28;20116;-46
2021/03/18 04:49:16;;;;;;;0.38;0.10;;;19.90;39.90;;;;;;5023227;28;20026;-46
2021/03/18 04:51:44;;;;;;;0.30;0.10;;;20.00;39.90;;;;;;5040816;28;20036;-46
2021/03/18 04:54:10;;;;;;;0.40;0.10;;;19.90;39.80;;;;;;5040656;28;20033;-47
2021/03/18 04:56:38;;;;;;;0.52;0.10;;;19.90;39.80;;;;;;5040343;28;20072;-45
2021/03/18 04:59:03;;;;;;;0.43;0.10;;;19.90;39.80;;;;;;5040579;28;20087;-43
2021/03/18 05:01:30;;;;;;;0.45;0.10;;;19.90;39.80;;;;;;5042014;28;20025;-45
2021/03/18 05:03:56;;;;;;;0.30;0.10;;;19.90;39.80;;;;;;5040276;28;20029;-46
2021/03/18 05:06:24;;;;;;;0.30;0.10;;;19.90;39.80;;;;;;5041651;28;20079;-47
2021/03/18 05:08:51;;;;;;;0.43;0.10;;;19.90;39.80;;;;;;5041511;28;20128;-46
2021/03/18 05:11:17;;;;;;;0.50;0.20;;;19.90;39.80;;;;;;5040144;28;20491;-47
2021/03/18 05:13:44;;;;;;;0.20;0.10;;;19.90;39.80;;;;;;5023266;28;20040;-44
2021/03/18 05:16:10;;;;;;;0.52;0.10;;;19.90;39.80;;;;;;5023422;28;20132;-47
2021/03/18 05:18:36;;;;;;;0.45;0.13;;;19.90;39.80;;;;;;5042300;28;20115;-47
2021/03/18 05:21:04;;;;;;;0.25;0.10;;;19.80;39.60;;;;;;5039954;28;20033;-46
2021/03/18 05:23:30;;;;;;;0.50;0.10;;;19.80;39.70;;;;;;5041483;28;20025;-49
2021/03/18 05:25:56;;;;;;;0.32;0.10;;;19.80;39.70;;;;;;5039365;28;20037;-44
2021/03/18 05:28:21;;;;;;;0.82;0.00;;;19.80;39.70;;;;;;5041911;28;20123;-46
2021/03/18 05:30:47;;;;;;;0.80;0.10;;;19.80;39.60;;;;;;5040814;28;20048;-47
2021/03/18 05:33:13;;;;;;;0.40;0.10;;;19.80;39.70;;;;;;5040326;28;20033;-47
2021/03/18 05:35:42;;;;;;;0.75;0.10;;;19.80;39.70;;;;;;5040916;28;20040;-45
2021/03/18 05:38:08;;;;;;;0.25;0.10;;;19.80;39.80;;;;;;5040428;28;20827;-50
2021/03/18 05:40:35;;;;;;;0.60;0.20;;;19.80;39.70;;;;;;5041943;28;20037;-43
2021/03/18 05:43:02;;;;;;;0.30;0.00;;;19.80;39.70;;;;;;5040241;28;20032;-45
2021/03/18 05:45:28;;;;;;;0.55;0.10;;;19.70;39.70;;;;;;5039568;28;20593;-46
2021/03/18 05:47:55;;;;;;;0.50;0.10;;;19.80;39.90;;;;;;5041356;28;20037;-49
2021/03/18 05:50:21;;;;;;;0.30;0.10;;;19.80;39.80;;;;;;5041056;28;20077;-48
2021/03/18 05:52:49;;;;;;;1.00;0.20;;;19.70;39.70;;;;;;5023812;28;20033;-46
2021/03/18 05:55:15;;;;;;;0.82;0.10;;;19.70;39.70;;;;;;5038845;28;20035;-50
2021/03/18 05:57:45;;;;;;;1.35;0.20;;;19.70;39.80;;;;;;5040523;28;20036;-46
2021/03/18 06:00:12;;;;;;;0.25;0.10;;;19.70;39.70;;;;;;5025067;28;20560;-46
2021/03/18 06:02:39;;;;;;;0.15;0.00;;;19.70;39.70;;;;;;5046462;28;20028;-52
2021/03/18 06:05:10;;;;;;;0.20;0.00;;;19.70;39.70;;;;;;5046995;28;20033;-46
2021/03/18 06:07:37;;;;;;;0.77;0.10;;;19.70;39.70;;;;;;5044366;28;20102;-47
2021/03/18 06:10:08;;;;;;;0.35;0.10;;;19.70;39.80;;;;;;5041076;28;20060;-47
2021/03/18 06:12:37;;;;;;;0.25;0.10;;;19.70;39.80;;;;;;5023005;28;20029;-48
2021/03/18 06:15:05;;;;;;;0.70;0.20;;;19.70;39.80;;;;;;5039739;28;20051;-45
2021/03/18 06:17:32;;;;;;;0.28;0.10;;;19.70;39.90;;;;;;5062736;22;20067;-46
2021/03/18 06:19:59;;;;;;;0.32;0.10;;;19.70;39.80;;;;;;5048189;28;20039;-44
2021/03/18 06:22:55;;;;;;;0.50;0.10;;;19.70;39.80;;;;;;5049160;28;20044;-45
2021/03/18 06:25:31;;;;;;;0.30;0.10;;;19.70;39.80;;;;;;5036303;28;20220;-46
2021/03/18 06:28:19;;;;;;;0.30;0.10;;;19.70;39.80;;;;;;5030040;28;20029;-45
2021/03/18 06:31:14;;;;;;;0.38;0.10;;;19.70;39.90;;;;;;5026503;28;20046;-45
2021/03/18 06:34:00;;;;;;;0.73;0.10;;;19.70;40.30;;;;;;5029435;28;20041;-43
2021/03/18 06:36:46;;;;;;;0.73;0.10;;;19.80;40.10;;;;;;5027839;28;20487;-44
2021/03/18 06:39:32;;;;;;;1.13;0.10;;;19.90;40.00;;;;;;5028424;28;20060;-44
2021/03/18 06:42:18;;;;;;;0.90;0.10;;;20.00;39.90;;;;;;5029573;28;20061;-46
2021/03/18 06:45:16;;;;;;;0.70;0.10;;;20.10;39.90;;;;;;5027561;28;20053;-46
2021/03/18 06:48:08;;;;;;;0.47;0.10;;;20.20;39.70;;;;;;5028666;28;20037;-45
2021/03/18 06:50:54;;;;;;;0.60;0.10;;;20.40;39.60;;;;;;5027878;28;20840;-42
2021/03/18 06:53:31;;;;;;;5.28;0.13;;;20.40;39.30;;;;;;5027984;28;20029;-47
2021/03/18 06:55:56;;;;;;;1.83;0.10;;;20.50;39.20;;;;;;5026837;28;20034;-44
2021/03/18 06:58:27;;;;;;;0.63;0.10;;;20.60;39.00;;;;;;5032599;28;20038;-46
2021/03/18 07:00:55;;;;;;;1.07;0.10;;;20.60;38.70;;;;;;5032439;28;20429;-44
2021/03/18 07:03:32;;;;;;;1.00;0.10;;;20.60;38.70;;;;;;5033779;28;20040;-46
2021/03/18 07:06:02;;;;;;;0.88;0.20;;;20.70;38.60;;;;;;5033719;28;20502;-44
2021/03/18 07:08:32;;;;;;;0.93;0.28;;;20.70;38.60;;;;;;5032067;28;20025;-44
2021/03/18 07:10:59;;;;;;;1.35;0.30;;;20.70;38.40;;;;;;5032802;28;20069;-45
2021/03/18 07:13:31;;;;;;;2.70;0.15;;;20.70;38.40;;;;;;5031154;28;20087;-47
2021/03/18 07:15:59;;;;;;;2.20;0.13;;;20.80;38.50;;;;;;5031122;28;20034;-46
2021/03/18 07:18:27;;;;;;;1.30;0.20;;;20.90;38.50;;;;;;5031196;28;20037;-44
2021/03/18 07:21:07;;;;;;;1.08;0.20;;;20.90;38.50;;;;;;5032296;28;20036;-44
2021/03/18 07:23:34;;;;;;;0.55;0.10;;;20.90;38.50;;;;;;5030435;28;20116;-46
2021/03/18 07:26:01;;;;;;;0.88;0.28;;;20.90;38.60;;;;;;5029942;28;20029;-47
2021/03/18 07:28:26;;;;;;;1.30;0.20;;;20.90;38.60;;;;;;5031085;28;20483;-45
2021/03/18 07:30:52;;;;;;;2.20;0.32;;;20.90;38.60;;;;;;5032121;28;20095;-46
2021/03/18 07:33:19;;;;;;;0.70;0.10;;;20.90;38.60;;;;;;5031440;28;20029;-48
2021/03/18 07:35:45;;;;;;;0.40;0.15;;;20.90;38.70;;;;;;5033348;28;20112;-44
2021/03/18 07:38:11;;;;;;;0.93;0.10;;;20.90;38.70;;;;;;5031133;28;20072;-46
2021/03/18 07:40:37;;;;;;;3.38;0.13;;;20.90;38.70;;;;;;5028777;28;20053;-46
2021/03/18 07:43:03;;;;;;;1.17;0.20;;;20.80;39.20;;;;;;5029627;28;20030;-46
2021/03/18 07:45:30;;;;;;;0.70;0.13;;;20.80;38.80;;;;;;5029699;28;20521;-43
2021/03/18 07:47:57;;;;;;;0.52;0.10;;;20.80;38.80;;;;;;5036284;28;20481;-46
2021/03/18 07:50:36;;;;;;;0.55;0.20;;;20.80;38.80;;;;;;5035477;28;20079;-46
2021/03/18 07:53:02;;;;;;;0.60;0.10;;;20.70;38.80;;;;;;5029082;28;20034;-45
2021/03/18 07:55:32;;;;;;;0.98;0.20;;;20.70;38.90;;;;;;5013591;28;20044;-49
2021/03/18 07:57:58;;;;;;;2.13;0.10;;;20.70;38.90;;;;;;5030853;28;20063;-48
2021/03/18 08:00:25;;;;;;;0.95;0.10;;;20.70;39.00;;;;;;5032742;28;20116;-49
2021/03/18 08:02:51;;;;;;;2.05;0.35;;;20.60;39.00;;;;;;5032903;28;20088;-47
2021/03/18 08:05:38;;;;;;;1.73;0.10;;;20.60;39.10;;;;;;5031774;28;20063;-45
2021/03/18 08:08:07;;;;;;;0.65;0.15;;;20.60;39.10;;;;;;5030591;28;20036;-45
2021/03/18 08:10:38;;;;;;;0.40;0.10;;;20.60;39.20;;;;;;5030117;28;20036;-44
2021/03/18 08:13:04;;;;;;;0.60;0.17;;;20.60;39.20;;;;;;5030972;28;20064;-46
2021/03/18 08:15:33;;;;;;;1.25;0.20;;;20.60;39.20;;;;;;5030986;28;20449;-44
2021/03/18 08:18:17;;;;;;;0.68;0.10;;;20.50;39.20;;;;;;5030718;28;20071;-46
2021/03/18 08:20:42;;;;;;;1.33;0.20;;;20.50;39.30;;;;;;5030497;28;20079;-44
2021/03/18 08:23:26;;;;;;;0.60;0.10;;;20.50;39.30;;;;;;5029270;28;20041;-44
2021/03/18 08:25:55;;;;;;;1.35;0.10;;;20.50;39.40;;;;;;5030265;28;20026;-46
2021/03/18 08:28:40;;;;;;;0.77;0.13;;;20.50;39.40;;;;;;5028778;28;20030;-46
2021/03/18 08:31:12;;;;;;;1.50;0.25;;;20.40;39.30;;;;;;5029345;28;20068;-44
2021/03/18 08:33:52;;;;;;;0.70;0.15;;;20.40;39.40;;;;;;5030980;28;20060;-45
2021/03/18 08:36:30;;;;;;;1.27;0.22;;;20.40;39.40;;;;;;5032086;28;20029;-44
2021/03/18 08:39:09;;;;;;;0.75;0.20;;;20.40;39.50;;;;;;5031911;28;20038;-43
2021/03/18 08:41:39;;;;;;;0.90;0.20;;;20.40;39.40;;;;;;5030090;28;20044;-44
2021/03/18 08:44:19;;;;;;;2.85;0.35;;;20.40;39.50;;;;;;5030987;28;20025;-40
2021/03/18 08:46:56;;;;;;;4.13;0.40;;;20.50;39.60;;;;;;5031318;28;20037;-45
2021/03/18 08:49:33;;;;;;;1.48;0.43;;;20.60;39.40;;;;;;5029599;28;20025;-48
2021/03/18 08:52:06;;;;;;;2.05;0.30;;;20.70;39.50;;;;;;5030024;28;20521;-50
2021/03/18 08:54:41;;;;;;;2.25;0.40;;;20.60;39.50;;;;;;5030862;28;20123;-49
2021/03/18 08:57:09;;;;;;;1.05;0.30;;;20.60;39.60;;;;;;5030756;28;20075;-46
2021/03/18 08:59:45;;;;;;;2.30;0.43;;;20.80;39.40;;;;;;5029040;28;20044;-49
2021/03/18 09:02:14;;;;;;;1.58;0.30;;;20.90;39.10;;;;;;5008721;28;20033;-47
2021/03/18 09:04:41;;;;;;;1.20;0.40;;;21.00;38.90;;;;;;5031514;28;20037;-47
2021/03/18 09:07:08;;;;;;;1.58;0.30;;;21.10;38.80;;;;;;5028363;28;20386;-47
2021/03/18 09:09:34;;;;;;;2.30;0.60;;;21.20;38.70;;;;;;5030896;28;20033;-47
2021/03/18 09:12:01;;;;;;;2.97;0.60;;;21.20;38.60;;;;;;5028485;28;20033;-48
2021/03/18 09:14:26;;;;;;;1.25;0.50;;;21.30;38.60;;;;;;5030540;28;20052;-47
2021/03/18 09:17:05;;;;;;;2.35;0.73;;;21.40;38.50;;;;;;5013097;28;20402;-48
2021/03/18 09:19:31;;;;;;;1.50;0.47;;;21.40;38.60;;;;;;5028689;28;20038;-48
2021/03/18 09:21:57;;;;;;;3.42;0.50;;;21.40;38.50;;;;;;5031854;28;20482;-47
2021/03/18 09:24:22;;;;;;;1.63;0.70;;;21.40;38.50;;;;;;5010158;28;20105;-48
2021/03/18 09:26:48;;;;;;;1.95;0.70;;;21.40;38.60;;;;;;5030022;28;20762;-47
2021/03/18 09:29:13;;;;;;;1.88;0.65;;;21.40;38.60;;;;;;5031430;28;20033;-48
2021/03/18 09:31:39;;;;;;;4.18;1.02;;;21.50;38.60;;;;;;5029405;28;20107;-47
2021/03/18 09:34:05;;;;;;;6.03;0.70;;;21.40;38.60;;;;;;5029994;28;20075;-48
2021/03/18 09:36:33;;;;;;;2.15;1.13;;;21.40;38.60;;;;;;5032307;28;20060;-46
2021/03/18 09:39:09;;;;;;;1.40;0.85;;;21.50;38.80;;;;;;5031572;28;20037;-48
2021/03/18 09:41:38;;;;;;;2.92;1.08;;;21.40;38.80;;;;;;5028560;28;20695;-47
2021/03/18 09:44:08;;;;;;;1.92;1.33;;;21.40;38.80;;;;;;5029965;28;20104;-48
2021/03/18 09:46:34;;;;;;;2.15;1.02;;;21.40;38.80;;;;;;5029664;28;20128;-49
2021/03/18 09:49:00;;;;;;;3.78;1.02;;;21.40;38.90;;;;;;5029623;28;20087;-49
2021/03/18 09:51:26;;;;;;;3.20;1.30;;;21.40;38.90;;;;;;5028871;28;20045;-49
2021/03/18 09:54:05;;;;;;;1.92;1.48;;;21.40;39.00;;;;;;5028832;28;20037;-47
2021/03/18 09:56:45;;;;;;;5.20;1.67;;;21.40;39.00;;;;;;5029052;28;20041;-47
2021/03/18 09:59:11;;;;;;;1.83;1.30;;;21.30;39.00;;;;;;5029822;28;20038;-47
2021/03/18 10:01:38;;;;;;;2.20;1.75;;;21.30;39.00;;;;;;5028859;28;20048;-48
2021/03/18 10:04:08;;;;;;;2.50;1.70;;;21.40;39.10;;;;;;5030624;28;20029;-46
2021/03/18 10:06:36;;;;;;;2.47;1.45;;;21.30;39.20;;;;;;5027683;28;20601;-47
2021/03/18 10:09:23;;;;;;;5.05;1.80;;;21.30;39.30;;;;;;5029189;28;20036;-46
2021/03/18 10:11:54;;;;;;;21.77;1.92;;;21.40;39.30;;;;;;5028217;28;20025;-47
2021/03/18 10:14:21;;;;;;;;;;;21.30;39.20;;;;;;5029734;28;20108;-48
2021/03/18 10:16:50;;;;;;;4.28;1.65;;;21.30;39.30;;;;;;5028756;28;19952;-47
2021/03/18 10:19:19;;;;;;;4.30;2.03;;;21.30;39.30;;;;;;5027988;28;20033;-49
2021/03/18 10:21:46;;;;;;;6.68;1.90;;;21.30;39.40;;;;;;5029281;28;20517;-47
2021/03/18 10:24:13;;;;;;;4.70;1.50;;;21.20;39.30;;;;;;5028389;28;20068;-49
2021/03/18 10:26:41;;;;;;;2.83;1.90;;;21.20;39.30;;;;;;5027427;28;20033;-48
2021/03/18 10:29:08;;;;;;;7.57;2.17;;;21.10;39.30;;;;;;5026882;28;20064;-49
2021/03/18 10:31:36;;;;;;;3.08;1.63;;;21.10;39.30;;;;;;5026958;28;20021;-49
2021/03/18 10:34:02;;;;;;;2.97;1.73;;;21.10;39.40;;;;;;5011625;28;20045;-48
2021/03/18 10:36:36;;;;;;;4.20;2.10;;;21.10;39.50;;;;;;5026846;28;20032;-50
2021/03/18 10:39:09;;;;;;;5.32;1.95;;;21.10;39.50;;;;;;5028277;28;20037;-48
2021/03/18 10:41:48;;;;;;;4.88;2.13;;;21.10;39.60;;;;;;5027317;28;20033;-49
2021/03/18 10:44:13;;;;;;;4.50;1.95;;;21.10;39.50;;;;;;5026578;28;20041;-49
2021/03/18 10:46:39;;;;;;;2.60;1.75;;;21.00;39.50;;;;;;5030120;28;20029;-49
2021/03/18 10:49:06;;;;;;;4.20;1.63;;;21.00;39.80;;;;;;5025470;28;20030;-49
2021/03/18 10:51:45;;;;;;;5.50;1.70;;;21.00;40.00;;;;;;5027341;28;20036;-48
2021/03/18 10:54:18;;;;;;;4.45;1.70;;;20.90;40.20;;;;;;5028400;28;20030;-48
2021/03/18 10:56:44;;;;;;;2.60;1.40;;;20.90;40.40;;;;;;5029163;28;20030;-48
2021/03/18 10:59:17;;;;;;;3.25;1.33;;;20.90;40.50;;;;;;5030268;28;20041;-50
2021/03/18 11:01:43;;;;;;;3.10;1.50;;;20.90;40.60;;;;;;5028458;28;20083;-48
2021/03/18 11:04:10;;;;;;;2.15;0.98;;;20.90;40.70;;;;;;5028309;28;20033;-50
2021/03/18 11:06:50;;;;;;;3.67;1.10;;;20.80;40.70;;;;;;5027339;28;20573;-49
2021/03/18 11:09:17;;;;;;;5.22;1.60;;;20.90;40.80;;;;;;5029428;28;20068;-48
2021/03/18 11:12:00;;;;;;;2.65;1.20;;;20.80;40.80;;;;;;5025277;28;20030;-49
2021/03/18 11:14:30;;;;;;;6.65;1.15;;;20.90;40.90;;;;;;5027467;28;20634;-51
2021/03/18 11:17:08;;;;;;;2.22;0.80;;;21.00;40.60;;;;;;5027259;28;20037;-49
2021/03/18 11:19:33;;;;;;;3.05;1.45;;;21.10;40.20;;;;;;5027339;28;20030;-47
2021/03/18 11:22:02;;;;;;;2.67;1.02;;;21.30;40.00;;;;;;5029117;28;20033;-48
2021/03/18 11:24:28;;;;;;;3.50;1.02;;;21.40;39.90;;;;;;5025750;28;20025;-48
2021/03/18 11:26:55;;;;;;;2.60;1.17;;;21.40;39.70;;;;;;5028034;28;20022;-48
2021/03/18 11:29:24;;;;;;;3.25;1.23;;;21.60;39.80;;;;;;5026272;28;20026;-48
2021/03/18 11:31:53;;;;;;;1.60;0.80;;;21.60;39.60;;;;;;5027986;28;20069;-49
2021/03/18 11:34:27;;;;;;;1.98;0.77;;;21.70;39.60;;;;;;5026566;28;20124;-45
2021/03/18 11:36:57;;;;;;;3.45;0.68;;;21.70;39.50;;;;;;5027681;28;20541;-50
2021/03/18 11:39:24;;;;;;;3.17;0.90;;;21.70;39.50;;;;;;5025681;28;20108;-49
2021/03/18 11:41:51;;;;;;;4.55;1.05;;;21.80;39.50;;;;;;5027392;28;20038;-48
2021/03/18 11:44:16;;;;;;;3.10;0.80;;;21.80;39.50;;;;;;5035704;28;20095;-49
2021/03/18 11:46:42;;;;;;;2.33;0.70;;;21.80;39.40;;;;;;5039174;28;20033;-48
2021/03/18 11:49:08;;;;;;;2.25;0.65;;;21.80;39.40;;;;;;5035710;28;20038;-48
2021/03/18 11:51:34;;;;;;;2.00;0.85;;;21.80;39.40;;;;;;5037194;28;20033;-48
2021/03/18 11:54:00;;;;;;;1.30;0.40;;;21.80;39.40;;;;;;5035292;28;20068;-48
2021/03/18 11:56:26;;;;;;;2.42;0.63;;;21.80;39.50;;;;;;5031717;28;20056;-48
2021/03/18 11:58:51;;;;;;;3.88;0.77;;;21.80;39.60;;;;;;5030500;28;20038;-49
2021/03/18 12:01:17;;;;;;;2.42;0.75;;;21.70;40.10;;;;;;5031800;28;20584;-50
2021/03/18 12:03:43;;;;;;;1.40;0.63;;;21.70;39.60;;;;;;5031271;28;20028;-49
2021/03/18 12:06:09;;;;;;;1.83;0.77;;;21.70;39.70;;;;;;5032092;28;20037;-49
2021/03/18 12:08:35;;;;;;;5.15;0.50;;;21.70;39.80;;;;;;5030925;28;20037;-48
2021/03/18 12:11:03;;;;;;;3.13;0.80;;;21.70;39.80;;;;;;5030787;28;20033;-48
2021/03/18 12:13:29;;;;;;;1.60;0.47;;;21.60;39.90;;;;;;5027439;28;20036;-49
2021/03/18 12:15:55;;;;;;;2.53;0.40;;;21.70;39.90;;;;;;5030298;28;20042;-48
2021/03/18 12:18:21;;;;;;;3.38;0.73;;;21.60;39.90;;;;;;5054463;22;20037;-80
2021/03/18 12:20:47;;;;;;;1.25;0.30;;;21.60;40.00;;;;;;5053059;28;20099;-81
2021/03/18 12:23:13;;;;;;;2.70;0.73;;;21.60;40.00;;;;;;5069633;28;20021;-80
2021/03/18 12:25:39;;;;;;;3.30;0.50;;;21.50;40.40;;;;;;5038700;28;20092;-81
2021/03/18 12:28:04;;;;;;;1.08;0.40;;;21.50;39.90;;;;;;5069454;28;20025;-80
2021/03/18 12:30:30;;;;;;;2.28;0.50;;;21.50;39.90;;;;;;5067900;28;20036;-81
2021/03/18 12:32:56;;;;;;;3.83;0.63;;;21.50;39.90;;;;;;5041762;28;20029;-80
2021/03/18 12:35:22;;;;;;;1.98;0.52;;;21.50;40.40;;;;;;5035788;28;20033;-81
2021/03/18 12:37:50;;;;;;;1.50;0.55;;;21.40;40.00;;;;;;5046707;28;20059;-80
2021/03/18 12:40:17;;;;;;;1.00;0.30;;;21.40;40.10;;;;;;5052855;28;20036;-80
2021/03/18 12:42:43;;;;;;;1.10;0.35;;;21.40;40.20;;;;;;5054889;28;20017;-80
2021/03/18 12:45:12;;;;;;;2.00;0.45;;;21.40;40.20;;;;;;5029846;28;20021;-80
2021/03/18 12:47:38;;;;;;;2.58;0.47;;;21.40;40.30;;;;;;5059533;28;20086;-81
2021/03/18 12:50:09;;;;;;;0.82;0.30;;;21.40;40.30;;;;;;5059495;28;20423;-80
2021/03/18 12:52:36;;;;;;;1.73;0.52;;;21.40;40.30;;;;;;5042583;28;20025;-80
2021/03/18 12:55:03;;;;;;;0.68;0.28;;;21.30;40.30;;;;;;5040653;28;20127;-81
2021/03/18 12:57:29;;;;;;;2.65;0.40;;;21.30;40.40;;;;;;5023178;28;20087;-80
2021/03/18 12:59:54;;;;;;;2.55;0.60;;;21.30;40.40;;;;;;5054673;28;20032;-81
2021/03/18 13:02:20;;;;;;;3.17;0.47;;;21.20;40.40;;;;;;5062799;28;20131;-81
2021/03/18 13:04:46;;;;;;;0.95;0.32;;;21.30;40.40;;;;;;5045688;28;20059;-80
2021/03/18 13:07:11;;;;;;;1.05;0.43;;;21.20;40.40;;;;;;5046543;28;20022;-80
2021/03/18 13:09:37;;;;;;;2.20;0.40;;;21.20;40.40;;;;;;5047552;28;20106;-81